Debrecen, Magyarország

2015 Március 30 02:52 PM (CEST időzóna) (GMT +0200)
Debrecen | | Change Station
CLOSE
Current Station
Personal Weather Stations
Location: Debrecen, HAJDU-BIHAR MEGYE
Elevation: 410 ft
Közeli meteorológiai állomások

Elev 410 ft 47.54 °N, 21.63 °E | Updated 2 minutes ago

Clear
Derült
56.5 °F
Hőérzet 56.5 °F
N
8.0
Szél: változó Szél: from dél-délnyugati
Gusts 10.0 mph

Ma
High -- | Low -- °F
--% Csapadék valószínű
Tegnapi
High -- | Low -- °F
Precip. -- hvlyk.
6:17 AM 6:59 PM
Növekvő hold, 79% visible
Légnyomás 29.56 hvlyk.
Látótávolság -9999.0 mérföld
Felhők
Harmatpont 39 °F
Páratartalom 52%
Rainfall 0.00 hvlyk.
Hóréteg vastagsága Not available.
UV Not available.
Pollen Not available.
A levegő minősége Not available.
Flu Activity Not available.
METAR LROD 301230Z 19014KT CAVOK 12/06 Q1001 R01/29//95

More Conditions Fewer Conditions

Légnyomás 29.56 hvlyk.
Látótávolság -9999.0 mérföld
Felhők
Harmatpont 39 °F
Páratartalom 52%
Rainfall 0.00 hvlyk.
Hóréteg vastagsága Not available.
UV Not available.
Pollen Not available.
A levegő minősége Not available.
Flu Activity Not available.
METAR LROD 301230Z 19014KT CAVOK 12/06 Q1001 R01/29//95

More Conditions Fewer Conditions

10-Day Weather Forecast

Almanac

Csillagászat

Mar. 30, 2015 Kel Nyugszik
Tényleges idő
Civil alkony
Tengerészeti alkony
Csillagászati alkony
Hold
Látható fény időtartama
A nap hossza
Tomorrow will be .
, % of the Moon is Illuminated

Today's Extremes

Country Highs Country Lows

Community

WunderPhotos

Upload Photos

1,809,464 Fotók feltöltve.

WunderBlogs® & News

Nearby

A levegő minősége

  A levegő minősége AQ Index Szennyezőanyag
Not available.

Hóréteg vastagsága

Station Depth Elevation

Earthquake Activity

város Distance Mag. Time & Date
Minimum magnitude displayed is 2.5.

Coastal Water Temperatures

Hely Hőmérséklet

Stations

Közeli meteorológiai állomások

Station Location Hőm. Hőérzet Harmatpont Páratartalom Szél: Precip. Elev Frissítve Type